Time;durP1;ratioP1;P1;durP2;ratioP2;P2;SDS_P1;SDS_P2;PMS_P1;PMS_P2;Temp;Humidity;BMP_temperature;BMP_pressure;BME280_temperature;BME280_humidity;BME280_pressure;Samples;Min_cycle;Max_cycle;Signal;HPM_P1;HPM_P2
2021/12/29 00:01:01;;;;;;;0.40;0.40;;;;;7.40;94699.00;;;;8271955;28;20241;-79
2021/12/29 00:05:05;;;;;;;0.33;0.33;;;;;7.40;94700.00;;;;8264840;28;20303;-79
2021/12/29 00:09:09;;;;;;;0.30;0.30;;;;;7.50;94705.00;;;;8271430;28;20325;-78
2021/12/29 00:13:14;;;;;;;0.30;0.30;;;;;7.50;94720.00;;;;8272828;28;20306;-80
2021/12/29 00:17:17;;;;;;;0.40;0.40;;;;;7.50;94712.00;;;;8276408;28;20992;-78
2021/12/29 00:21:20;;;;;;;0.30;0.30;;;;;7.60;94719.00;;;;8275916;28;20226;-77
2021/12/29 00:25:23;;;;;;;0.33;0.33;;;;;7.60;94710.00;;;;8272581;28;20333;-78
2021/12/29 00:29:28;;;;;;;0.30;0.30;;;;;7.70;94726.00;;;;8282401;28;20357;-78
2021/12/29 00:33:31;;;;;;;0.40;0.40;;;;;7.70;94719.00;;;;8286946;28;20765;-78
2021/12/29 00:37:34;;;;;;;0.40;0.40;;;;;7.70;94723.00;;;;8271666;28;20229;-78
2021/12/29 00:41:38;;;;;;;0.40;0.40;;;;;7.80;94732.00;;;;8269505;28;20260;-78
2021/12/29 00:45:43;;;;;;;0.37;0.37;;;;;7.80;94748.00;;;;8275860;28;20252;-77
2021/12/29 00:49:47;;;;;;;0.30;0.30;;;;;7.80;94753.00;;;;8277330;28;20244;-77
2021/12/29 00:53:50;;;;;;;0.40;0.40;;;;;7.90;94755.00;;;;8283785;28;20254;-76
2021/12/29 00:57:53;;;;;;;0.40;0.40;;;;;7.90;94756.00;;;;8271099;28;20314;-76
2021/12/29 01:01:58;;;;;;;0.40;0.40;;;;;7.90;94768.00;;;;8279712;28;20306;-75
2021/12/29 01:06:01;;;;;;;0.40;0.40;;;;;7.90;94760.00;;;;8283388;28;20226;-78
2021/12/29 01:10:06;;;;;;;0.30;0.30;;;;;8.00;94761.00;;;;8282439;28;20313;-77
2021/12/29 01:14:10;;;;;;;0.37;0.37;;;;;8.00;94783.00;;;;8274807;28;20321;-77
2021/12/29 01:18:14;;;;;;;0.30;0.30;;;;;8.00;94783.00;;;;8269283;28;20264;-77
2021/12/29 01:22:18;;;;;;;0.30;0.30;;;;;8.00;94789.00;;;;8275555;28;20360;-77
2021/12/29 01:26:21;;;;;;;0.40;0.40;;;;;8.10;94814.00;;;;8271076;28;20249;-77
2021/12/29 01:30:25;;;;;;;0.40;0.40;;;;;8.10;94808.00;;;;8267789;28;20329;-76
2021/12/29 01:34:29;;;;;;;0.40;0.40;;;;;8.10;94823.00;;;;8269919;28;20284;-76
2021/12/29 01:38:32;;;;;;;0.40;0.40;;;;;8.10;94833.00;;;;8270892;28;20306;-76
2021/12/29 01:42:36;;;;;;;0.40;0.40;;;;;8.10;94824.00;;;;8267269;28;20297;-76
2021/12/29 01:46:40;;;;;;;0.40;0.40;;;;;8.20;94824.00;;;;8272539;28;20253;-77
2021/12/29 01:50:49;;;;;;;0.40;0.40;;;;;8.20;94830.00;;;;8280830;28;20719;-77
2021/12/29 01:54:52;;;;;;;0.40;0.40;;;;;8.20;94833.00;;;;8270541;28;20246;-78
2021/12/29 01:58:58;;;;;;;0.40;0.40;;;;;8.20;94844.00;;;;8275914;28;20285;-77
2021/12/29 02:03:01;;;;;;;0.30;0.30;;;;;8.20;94847.00;;;;8281688;28;20249;-77
2021/12/29 02:07:06;;;;;;;0.33;0.33;;;;;8.20;94854.00;;;;8278474;28;20295;-78
2021/12/29 02:11:09;;;;;;;0.40;0.40;;;;;8.30;94857.00;;;;8284827;28;20238;-77
2021/12/29 02:15:13;;;;;;;0.40;0.40;;;;;8.30;94860.00;;;;8284495;28;20706;-77
2021/12/29 02:19:16;;;;;;;0.40;0.40;;;;;8.30;94847.00;;;;8279247;28;20336;-76
2021/12/29 02:23:30;;;;;;;0.40;0.40;;;;;8.30;94843.00;;;;8284196;28;20229;-77
2021/12/29 02:27:34;;;;;;;0.40;0.40;;;;;8.30;94850.00;;;;8284746;28;20269;-77
2021/12/29 02:31:37;;;;;;;0.40;0.40;;;;;8.30;94860.00;;;;8252811;28;20314;-79
2021/12/29 02:35:42;;;;;;;0.40;0.40;;;;;8.30;94869.00;;;;8253602;28;20226;-78
2021/12/29 02:39:49;;;;;;;0.40;0.40;;;;;8.30;94880.00;;;;8276344;28;20309;-78
2021/12/29 02:43:59;;;;;;;0.30;0.30;;;;;8.40;94890.00;;;;8284746;28;20232;-78
2021/12/29 02:48:02;;;;;;;0.30;0.30;;;;;8.40;94901.00;;;;8284604;28;20253;-78
2021/12/29 02:52:08;;;;;;;0.40;0.40;;;;;8.40;94902.00;;;;8282961;28;20579;-77
2021/12/29 02:56:13;;;;;;;0.40;0.40;;;;;8.40;94898.00;;;;8283795;28;20242;-77
2021/12/29 03:00:18;;;;;;;0.40;0.40;;;;;8.40;94910.00;;;;8272816;28;20313;-77
2021/12/29 03:04:21;;;;;;;0.40;0.40;;;;;8.40;94917.00;;;;8307770;22;20318;-78
2021/12/29 03:08:25;;;;;;;0.30;0.30;;;;;8.50;94910.00;;;;8293869;28;20243;-79
2021/12/29 03:12:30;;;;;;;0.30;0.30;;;;;8.50;94915.00;;;;8280909;28;20250;-78
2021/12/29 03:16:34;;;;;;;0.40;0.40;;;;;8.50;94924.00;;;;8280799;28;20263;-79
2021/12/29 03:20:37;;;;;;;0.40;0.40;;;;;8.50;94932.00;;;;8283244;28;20258;-79
2021/12/29 03:24:40;;;;;;;0.40;0.40;;;;;8.60;94942.00;;;;8281928;28;20332;-79
2021/12/29 03:28:45;;;;;;;0.40;0.40;;;;;8.60;94949.00;;;;8280918;28;21037;-78
2021/12/29 03:32:52;;;;;;;0.40;0.40;;;;;8.60;94954.00;;;;8286431;28;20695;-78
2021/12/29 03:36:55;;;;;;;0.33;0.33;;;;;8.60;94951.00;;;;8277612;28;20259;-79
2021/12/29 03:41:00;;;;;;;0.33;0.33;;;;;8.60;94960.00;;;;8278476;28;20226;-80
2021/12/29 03:45:06;;;;;;;0.30;0.30;;;;;8.60;94960.00;;;;8280120;28;20233;-81
2021/12/29 03:49:10;;;;;;;0.30;0.30;;;;;8.60;94972.00;;;;8274125;28;20237;-80
2021/12/29 03:53:15;;;;;;;0.40;0.40;;;;;8.70;94979.00;;;;8275897;28;20314;-80
2021/12/29 03:57:18;;;;;;;0.32;0.32;;;;;8.70;94977.00;;;;8279164;28;20241;-81
2021/12/29 04:01:25;;;;;;;0.40;0.40;;;;;8.70;94980.00;;;;8275651;28;20269;-79
2021/12/29 04:05:29;;;;;;;0.30;0.30;;;;;8.70;94994.00;;;;8247809;28;20242;-79
2021/12/29 04:09:32;;;;;;;0.30;0.30;;;;;8.70;94999.00;;;;8256400;28;20917;-78
2021/12/29 04:13:36;;;;;;;0.40;0.40;;;;;8.70;94999.00;;;;8257438;28;20258;-80
2021/12/29 04:17:42;;;;;;;0.30;0.30;;;;;8.70;95000.00;;;;8268757;28;20360;-80
2021/12/29 04:21:47;;;;;;;0.40;0.40;;;;;8.70;94999.00;;;;8256675;28;20250;-80
2021/12/29 04:25:53;;;;;;;0.40;0.40;;;;;8.70;95017.00;;;;8263853;28;20258;-80
2021/12/29 04:29:57;;;;;;;0.30;0.30;;;;;8.70;95021.00;;;;8261584;28;20643;-82
2021/12/29 04:34:02;;;;;;;0.40;0.40;;;;;8.70;95011.00;;;;8263330;28;20322;-80
2021/12/29 04:38:05;;;;;;;0.30;0.30;;;;;8.70;95038.00;;;;8254547;28;20238;-80
2021/12/29 04:42:09;;;;;;;0.30;0.30;;;;;8.80;95040.00;;;;8266861;28;20873;-82
2021/12/29 04:46:15;;;;;;;0.30;0.30;;;;;8.80;95042.00;;;;8267955;28;20246;-80
2021/12/29 04:50:26;;;;;;;0.40;0.40;;;;;8.80;95049.00;;;;8266726;28;20328;-81
2021/12/29 04:54:30;;;;;;;0.40;0.40;;;;;8.80;95068.00;;;;8267400;28;20247;-81
2021/12/29 04:58:33;;;;;;;0.40;0.40;;;;;8.80;95058.00;;;;8280697;28;20297;-79
2021/12/29 05:02:36;;;;;;;0.40;0.40;;;;;8.80;95078.00;;;;8265841;28;20662;-80
2021/12/29 05:11:06;;;;;;;0.40;0.40;;;;;8.80;95083.00;;;;8262404;28;20322;-80
2021/12/29 05:15:09;;;;;;;0.40;0.40;;;;;8.80;95082.00;;;;8264628;28;20273;-80
2021/12/29 05:19:12;;;;;;;0.30;0.30;;;;;8.80;95081.00;;;;8259657;28;20260;-80
2021/12/29 05:23:17;;;;;;;0.40;0.40;;;;;8.80;95092.00;;;;8257947;28;20265;-80
2021/12/29 05:27:20;;;;;;;0.40;0.40;;;;;8.80;95111.00;;;;8259847;28;20226;-77
2021/12/29 05:31:25;;;;;;;0.40;0.40;;;;;8.70;95104.00;;;;8267430;28;20281;-79
2021/12/29 05:35:28;;;;;;;0.30;0.30;;;;;8.70;95104.00;;;;8258685;28;20971;-78
2021/12/29 05:39:33;;;;;;;0.40;0.40;;;;;8.70;95111.00;;;;8265859;28;20235;-76
2021/12/29 05:43:36;;;;;;;0.30;0.30;;;;;8.70;95115.00;;;;8261718;28;20223;-78
2021/12/29 05:47:40;;;;;;;0.40;0.40;;;;;8.80;95120.00;;;;8265486;28;20230;-78
2021/12/29 05:51:43;;;;;;;0.30;0.30;;;;;8.80;95125.00;;;;8248445;28;21057;-80
2021/12/29 05:55:50;;;;;;;0.30;0.30;;;;;8.70;95137.00;;;;8225763;28;20258;-79
2021/12/29 05:59:54;;;;;;;0.40;0.40;;;;;8.70;95134.00;;;;8254644;28;20320;-79
2021/12/29 06:03:57;;;;;;;0.30;0.30;;;;;8.70;95135.00;;;;8247824;28;20946;-80
2021/12/29 06:08:00;;;;;;;0.40;0.40;;;;;8.80;95135.00;;;;8250792;28;20254;-80
2021/12/29 06:12:06;;;;;;;0.33;0.33;;;;;8.80;95149.00;;;;8252641;28;20309;-80
2021/12/29 06:16:09;;;;;;;0.40;0.40;;;;;8.80;95171.00;;;;8257384;28;20325;-78
2021/12/29 06:20:14;;;;;;;0.40;0.40;;;;;8.70;95176.00;;;;8254371;28;20233;-78
2021/12/29 06:24:17;;;;;;;0.30;0.30;;;;;8.80;95179.00;;;;8243147;28;20258;-79
2021/12/29 06:28:21;;;;;;;0.33;0.33;;;;;8.80;95197.00;;;;8238164;28;20337;-79
2021/12/29 06:32:25;;;;;;;0.30;0.30;;;;;8.80;95217.00;;;;8244773;28;20315;-79
2021/12/29 06:36:29;;;;;;;0.40;0.40;;;;;8.80;95228.00;;;;8258545;28;20349;-81
2021/12/29 06:40:32;;;;;;;0.30;0.30;;;;;8.80;95242.00;;;;8255523;28;20240;-82
2021/12/29 06:44:37;;;;;;;0.30;0.30;;;;;8.80;95240.00;;;;8250434;28;20288;-81
2021/12/29 06:48:41;;;;;;;0.40;0.40;;;;;8.80;95247.00;;;;8256581;28;20656;-82
2021/12/29 06:52:44;;;;;;;0.30;0.30;;;;;8.90;95253.00;;;;8266566;28;20244;-84
2021/12/29 06:56:47;;;;;;;0.40;0.40;;;;;8.80;95254.00;;;;8251378;28;20753;-81
2021/12/29 07:00:52;;;;;;;0.40;0.40;;;;;8.90;95258.00;;;;8249970;28;20257;-86
2021/12/29 07:04:55;;;;;;;0.40;0.40;;;;;8.90;95275.00;;;;8246330;28;20234;-85
2021/12/29 07:08:59;;;;;;;0.40;0.40;;;;;8.90;95270.00;;;;8260258;28;20364;-86
2021/12/29 07:13:02;;;;;;;0.30;0.30;;;;;9.00;95283.00;;;;8239886;28;20250;-83
2021/12/29 07:17:07;;;;;;;0.30;0.30;;;;;9.00;95295.00;;;;8248546;28;20229;-88
2021/12/29 07:21:10;;;;;;;0.30;0.30;;;;;9.00;95293.00;;;;8249022;28;20254;-83
2021/12/29 07:25:13;;;;;;;0.40;0.40;;;;;9.00;95313.00;;;;8243841;28;20685;-87
2021/12/29 07:29:17;;;;;;;0.30;0.30;;;;;9.00;95324.00;;;;8257735;28;20322;-86
2021/12/29 07:33:22;;;;;;;0.30;0.30;;;;;9.10;95326.00;;;;8248247;28;20235;-80
2021/12/29 07:37:25;;;;;;;0.40;0.40;;;;;9.10;95339.00;;;;8235381;28;20318;-86
2021/12/29 07:41:29;;;;;;;0.40;0.40;;;;;9.10;95347.00;;;;8221649;28;20467;-84
2021/12/29 07:45:37;;;;;;;0.30;0.30;;;;;9.10;95341.00;;;;8244651;28;20317;-83
2021/12/29 07:49:42;;;;;;;0.40;0.40;;;;;9.10;95359.00;;;;8249053;28;20230;-86
2021/12/29 07:53:45;;;;;;;0.40;0.40;;;;;9.10;95372.00;;;;8244178;28;20263;-84
2021/12/29 07:57:49;;;;;;;0.40;0.40;;;;;9.10;95370.00;;;;8252730;28;20256;-87
2021/12/29 08:01:52;;;;;;;0.40;0.40;;;;;9.10;95375.00;;;;8255865;28;20259;-84
2021/12/29 08:05:57;;;;;;;0.40;0.40;;;;;9.10;95368.00;;;;8255726;28;20256;-87
2021/12/29 08:10:01;;;;;;;0.40;0.40;;;;;9.10;95360.00;;;;8251547;28;20246;-86
2021/12/29 08:14:04;;;;;;;0.40;0.40;;;;;9.20;95372.00;;;;8261044;28;20321;-90
2021/12/29 08:18:07;;;;;;;0.30;0.30;;;;;9.20;95378.00;;;;8257307;28;20320;-87
2021/12/29 08:22:12;;;;;;;0.40;0.40;;;;;9.30;95384.00;;;;8244112;28;20335;-86
2021/12/29 08:26:16;;;;;;;0.40;0.40;;;;;9.30;95385.00;;;;8240041;28;20285;-84
2021/12/29 08:30:19;;;;;;;0.32;0.32;;;;;9.30;95391.00;;;;8251706;28;20271;-84
2021/12/29 08:34:23;;;;;;;0.30;0.30;;;;;9.40;95397.00;;;;8250350;28;20226;-84
2021/12/29 08:38:27;;;;;;;0.40;0.40;;;;;9.40;95404.00;;;;8252500;28;20262;-85
2021/12/29 08:42:31;;;;;;;0.40;0.40;;;;;9.40;95420.00;;;;8248342;28;20223;-83
2021/12/29 08:46:34;;;;;;;0.40;0.40;;;;;9.40;95412.00;;;;8220551;28;20719;-83
2021/12/29 08:50:37;;;;;;;0.30;0.30;;;;;9.40;95418.00;;;;8222229;28;20317;-83
2021/12/29 08:54:42;;;;;;;0.40;0.40;;;;;9.50;95431.00;;;;8232775;28;20257;-81
2021/12/29 08:58:46;;;;;;;0.40;0.40;;;;;9.60;95430.00;;;;8275219;28;20600;-80
2021/12/29 09:02:50;;;;;;;0.30;0.30;;;;;9.70;95445.00;;;;8237950;28;20572;-80
2021/12/29 09:06:53;;;;;;;0.30;0.30;;;;;9.70;95441.00;;;;8245155;28;20223;-81
2021/12/29 09:10:58;;;;;;;0.30;0.30;;;;;9.80;95448.00;;;;8244661;28;20265;-80
2021/12/29 09:15:02;;;;;;;0.30;0.30;;;;;9.70;95444.00;;;;8246940;28;20251;-80
2021/12/29 09:19:05;;;;;;;0.30;0.30;;;;;9.80;95464.00;;;;8241592;28;20840;-80
2021/12/29 09:23:09;;;;;;;0.30;0.30;;;;;9.90;95476.00;;;;8228143;28;20986;-80
2021/12/29 09:27:15;;;;;;;0.40;0.40;;;;;9.80;95467.00;;;;8220038;28;20254;-81
2021/12/29 09:31:20;;;;;;;0.30;0.30;;;;;9.80;95465.00;;;;8223772;28;20296;-80
2021/12/29 09:35:24;;;;;;;0.40;0.40;;;;;9.70;95469.00;;;;8244757;28;20273;-79
2021/12/29 09:39:28;;;;;;;0.40;0.40;;;;;9.80;95484.00;;;;8229996;28;20238;-79
2021/12/29 09:43:34;;;;;;;0.30;0.30;;;;;9.70;95486.00;;;;8231157;28;20261;-79
2021/12/29 09:47:37;;;;;;;0.40;0.40;;;;;9.60;95489.00;;;;8247300;28;20269;-81
2021/12/29 09:51:41;;;;;;;0.40;0.40;;;;;9.40;95493.00;;;;8251448;28;20326;-80
2021/12/29 09:55:46;;;;;;;0.30;0.30;;;;;9.40;95503.00;;;;8228879;28;20826;-79
2021/12/29 09:59:51;;;;;;;0.30;0.30;;;;;9.30;95501.00;;;;8261240;28;20684;-80
2021/12/29 10:03:54;;;;;;;0.40;0.40;;;;;9.30;95504.00;;;;8243089;28;20685;-80
2021/12/29 10:08:00;;;;;;;0.30;0.30;;;;;9.30;95504.00;;;;8249208;28;20254;-81
2021/12/29 10:12:08;;;;;;;0.30;0.30;;;;;9.40;95512.00;;;;8245429;28;20325;-81
2021/12/29 10:16:14;;;;;;;0.30;0.30;;;;;9.50;95512.00;;;;8242179;28;20816;-81
2021/12/29 10:20:17;;;;;;;0.40;0.40;;;;;9.50;95514.00;;;;8250898;28;20252;-81
2021/12/29 10:24:22;;;;;;;0.40;0.40;;;;;9.60;95511.00;;;;8221672;28;20318;-81
2021/12/29 10:28:28;;;;;;;0.40;0.40;;;;;9.70;95520.00;;;;8234959;28;20277;-79
2021/12/29 10:32:33;;;;;;;0.40;0.40;;;;;9.70;95520.00;;;;8249012;28;20252;-79
2021/12/29 10:36:41;;;;;;;0.40;0.40;;;;;9.70;95527.00;;;;8248031;28;20628;-80
2021/12/29 10:40:45;;;;;;;0.30;0.30;;;;;9.70;95530.00;;;;8221792;28;20736;-80
2021/12/29 10:44:50;;;;;;;0.40;0.40;;;;;9.70;95539.00;;;;8230536;28;20252;-80
2021/12/29 10:48:56;;;;;;;0.40;0.40;;;;;9.60;95536.00;;;;8244982;28;20226;-80
2021/12/29 10:52:59;;;;;;;0.33;0.33;;;;;9.50;95538.00;;;;8215795;28;20239;-79
2021/12/29 10:57:05;;;;;;;0.40;0.40;;;;;9.50;95543.00;;;;8248357;28;20663;-80
2021/12/29 11:01:11;;;;;;;0.40;0.40;;;;;9.50;95541.00;;;;8256282;28;20319;-80
2021/12/29 11:05:16;;;;;;;0.30;0.30;;;;;9.50;95537.00;;;;8248125;28;20242;-79
2021/12/29 11:09:26;;;;;;;0.30;0.30;;;;;9.50;95536.00;;;;8245980;28;20261;-78
2021/12/29 11:13:30;;;;;;;0.40;0.40;;;;;9.50;95535.00;;;;8238777;28;20403;-78
2021/12/29 11:17:38;;;;;;;0.30;0.30;;;;;9.60;95541.00;;;;8243347;28;20281;-78
2021/12/29 11:21:43;;;;;;;0.40;0.40;;;;;9.60;95543.00;;;;8246359;28;20270;-78
2021/12/29 11:25:47;;;;;;;0.30;0.30;;;;;9.60;95542.00;;;;8214858;28;20266;-78
2021/12/29 11:29:56;;;;;;;0.30;0.30;;;;;9.60;95545.00;;;;8233464;28;20688;-78
2021/12/29 11:34:12;;;;;;;0.40;0.40;;;;;9.60;95549.00;;;;8248105;28;20263;-78
2021/12/29 11:38:18;;;;;;;0.38;0.38;;;;;9.60;95550.00;;;;8253079;28;20245;-79
2021/12/29 11:42:21;;;;;;;0.40;0.40;;;;;9.60;95554.00;;;;8253360;28;20261;-78
2021/12/29 11:46:25;;;;;;;0.30;0.30;;;;;9.60;95549.00;;;;8226643;28;20263;-77
2021/12/29 11:50:30;;;;;;;0.30;0.30;;;;;9.60;95548.00;;;;8238534;28;20235;-80
2021/12/29 11:54:48;;;;;;;0.30;0.30;;;;;9.60;95553.00;;;;8241444;28;20258;-80
2021/12/29 11:58:52;;;;;;;0.30;0.30;;;;;9.60;95558.00;;;;8242707;28;20315;-79
2021/12/29 12:03:07;;;;;;;0.30;0.30;;;;;9.60;95567.00;;;;8236810;28;20788;-77
2021/12/29 12:07:14;;;;;;;0.30;0.30;;;;;9.70;95561.00;;;;8260213;28;20292;-78
2021/12/29 12:11:28;;;;;;;0.40;0.40;;;;;9.70;95566.00;;;;8242328;28;20255;-78
2021/12/29 12:15:34;;;;;;;0.30;0.30;;;;;9.70;95560.00;;;;8248867;28;20309;-77
2021/12/29 12:19:37;;;;;;;0.40;0.40;;;;;9.70;95560.00;;;;8253335;28;20317;-78
2021/12/29 12:23:40;;;;;;;0.30;0.30;;;;;9.70;95562.00;;;;8243532;28;20533;-79
2021/12/29 12:27:48;;;;;;;0.30;0.30;;;;;9.70;95570.00;;;;8251877;28;20648;-79
2021/12/29 12:32:17;;;;;;;0.45;0.45;;;;;9.80;95565.00;;;;8251608;28;20977;-76
2021/12/29 12:36:20;;;;;;;0.30;0.30;;;;;9.90;95571.00;;;;8233845;28;20662;-78
2021/12/29 12:40:27;;;;;;;0.40;0.40;;;;;9.80;95567.00;;;;8248106;28;20305;-77
2021/12/29 12:44:36;;;;;;;0.30;0.30;;;;;9.90;95565.00;;;;8247868;28;20257;-78
2021/12/29 12:48:41;;;;;;;0.30;0.30;;;;;9.80;95568.00;;;;8243065;28;20258;-78
2021/12/29 12:52:45;;;;;;;0.30;0.30;;;;;9.70;95573.00;;;;8247491;28;20254;-80
2021/12/29 12:56:49;;;;;;;0.38;0.38;;;;;9.70;95573.00;;;;8252965;28;20317;-78
2021/12/29 13:00:57;;;;;;;0.40;0.40;;;;;9.70;95576.00;;;;8249581;28;20650;-80
2021/12/29 13:05:06;;;;;;;0.40;0.40;;;;;9.60;95581.00;;;;8250402;28;20248;-80
2021/12/29 13:09:10;;;;;;;0.40;0.40;;;;;9.60;95596.00;;;;8239403;28;20644;-80
2021/12/29 13:13:18;;;;;;;0.30;0.30;;;;;9.50;95606.00;;;;8241974;28;20258;-81
2021/12/29 13:17:22;;;;;;;0.50;0.50;;;;;9.50;95622.00;;;;8249111;28;20234;-82
2021/12/29 13:21:28;;;;;;;0.50;0.50;;;;;9.50;95622.00;;;;8254720;28;20234;-81
2021/12/29 13:25:31;;;;;;;0.40;0.40;;;;;9.50;95632.00;;;;8252726;28;20376;-82
2021/12/29 13:29:35;;;;;;;0.30;0.30;;;;;9.60;95632.00;;;;8248781;28;20376;-82
2021/12/29 13:33:46;;;;;;;0.40;0.40;;;;;9.60;95631.00;;;;8251171;28;20261;-82
2021/12/29 13:37:50;;;;;;;0.40;0.40;;;;;9.60;95642.00;;;;8255750;28;20234;-83
2021/12/29 13:41:53;;;;;;;0.30;0.30;;;;;9.60;95649.00;;;;8247498;28;20889;-84
2021/12/29 13:46:06;;;;;;;0.40;0.40;;;;;9.60;95656.00;;;;8241375;28;20256;-85
2021/12/29 13:50:15;;;;;;;0.30;0.30;;;;;9.70;95661.00;;;;8238381;28;20600;-79
2021/12/29 13:54:20;;;;;;;0.40;0.40;;;;;9.70;95663.00;;;;8233382;28;20228;-79
2021/12/29 13:58:25;;;;;;;0.40;0.40;;;;;9.70;95675.00;;;;8259259;28;20701;-78
2021/12/29 14:02:30;;;;;;;0.40;0.40;;;;;9.70;95669.00;;;;8244176;28;20318;-78
2021/12/29 14:06:34;;;;;;;0.30;0.30;;;;;9.70;95683.00;;;;8243392;28;20226;-77
2021/12/29 14:10:40;;;;;;;0.30;0.30;;;;;9.70;95675.00;;;;8250270;28;20277;-78
2021/12/29 14:14:45;;;;;;;0.40;0.40;;;;;9.70;95675.00;;;;8249925;28;20883;-78
2021/12/29 14:18:54;;;;;;;0.40;0.40;;;;;9.70;95684.00;;;;8251712;28;20317;-78
2021/12/29 14:23:05;;;;;;;0.30;0.30;;;;;9.70;95693.00;;;;8237960;28;20253;-80
2021/12/29 14:27:08;;;;;;;0.30;0.30;;;;;9.70;95692.00;;;;8248349;28;20248;-78
2021/12/29 14:31:13;;;;;;;0.40;0.40;;;;;9.70;95703.00;;;;8242267;28;20258;-78
2021/12/29 14:35:17;;;;;;;0.30;0.30;;;;;9.70;95699.00;;;;8243605;28;20239;-77
2021/12/29 14:39:23;;;;;;;0.40;0.40;;;;;9.70;95692.00;;;;8248276;28;20690;-78
2021/12/29 14:43:27;;;;;;;0.30;0.30;;;;;9.70;95697.00;;;;8243066;28;20639;-78
2021/12/29 14:47:33;;;;;;;0.30;0.30;;;;;9.60;95697.00;;;;8227878;28;20254;-78
2021/12/29 14:51:49;;;;;;;0.40;0.40;;;;;9.60;95690.00;;;;8238520;28;20222;-78
2021/12/29 14:55:55;;;;;;;0.38;0.38;;;;;9.60;95693.00;;;;8237354;28;20696;-79
2021/12/29 15:00:03;;;;;;;0.30;0.30;;;;;9.60;95698.00;;;;8233780;28;20257;-79
2021/12/29 15:04:06;;;;;;;0.35;0.35;;;;;9.60;95705.00;;;;8234491;28;20596;-78
2021/12/29 15:08:10;;;;;;;0.30;0.30;;;;;9.60;95715.00;;;;8239907;28;20261;-78
2021/12/29 15:12:19;;;;;;;0.35;0.35;;;;;9.60;95717.00;;;;8244580;28;20713;-80
2021/12/29 15:16:22;;;;;;;0.40;0.40;;;;;9.50;95709.00;;;;8244722;28;20226;-79
2021/12/29 15:20:27;;;;;;;0.40;0.40;;;;;9.50;95707.00;;;;8245429;28;20245;-80
2021/12/29 15:24:30;;;;;;;0.40;0.40;;;;;9.50;95714.00;;;;8244918;28;20314;-78
2021/12/29 15:28:35;;;;;;;0.40;0.40;;;;;9.40;95703.00;;;;8248506;28;20245;-80
2021/12/29 15:32:38;;;;;;;0.30;0.30;;;;;9.40;95709.00;;;;8253934;28;20701;-81
2021/12/29 15:36:42;;;;;;;0.40;0.40;;;;;9.40;95728.00;;;;8247519;28;20251;-81
2021/12/29 15:40:46;;;;;;;0.40;0.40;;;;;9.30;95736.00;;;;8248530;28;20881;-81
2021/12/29 15:44:51;;;;;;;0.40;0.40;;;;;9.30;95736.00;;;;8248730;28;20656;-77
2021/12/29 15:48:54;;;;;;;0.30;0.30;;;;;9.30;95739.00;;;;8247364;28;20920;-77
2021/12/29 15:52:58;;;;;;;0.40;0.40;;;;;9.20;95738.00;;;;8253166;28;20265;-78
2021/12/29 15:57:03;;;;;;;0.40;0.40;;;;;9.20;95735.00;;;;8235659;28;20803;-77
2021/12/29 16:01:08;;;;;;;0.40;0.40;;;;;9.20;95749.00;;;;8241424;28;20310;-77
2021/12/29 16:05:11;;;;;;;0.40;0.40;;;;;9.10;95746.00;;;;8243424;28;20220;-78
2021/12/29 16:09:15;;;;;;;0.40;0.40;;;;;9.10;95751.00;;;;8256266;28;20290;-76
2021/12/29 16:13:18;;;;;;;0.40;0.40;;;;;9.10;95741.00;;;;8248288;28;20285;-78
2021/12/29 16:17:23;;;;;;;0.40;0.40;;;;;9.10;95746.00;;;;8249586;28;20864;-77
2021/12/29 16:21:26;;;;;;;0.40;0.40;;;;;9.00;95740.00;;;;8247288;28;20749;-77
2021/12/29 16:25:30;;;;;;;0.40;0.40;;;;;9.00;95732.00;;;;8249753;28;20235;-78
2021/12/29 16:29:33;;;;;;;0.40;0.40;;;;;8.90;95737.00;;;;8251002;28;20309;-77
2021/12/29 16:33:37;;;;;;;0.40;0.40;;;;;8.90;95742.00;;;;8247062;28;20660;-77
2021/12/29 16:37:41;;;;;;;0.40;0.40;;;;;8.80;95737.00;;;;8237884;28;20250;-76
2021/12/29 16:41:45;;;;;;;0.40;0.40;;;;;8.80;95751.00;;;;8244443;28;20293;-77
2021/12/29 16:45:49;;;;;;;0.40;0.40;;;;;8.70;95745.00;;;;8245032;28;20231;-79
2021/12/29 16:49:55;;;;;;;0.40;0.40;;;;;8.70;95735.00;;;;8259518;28;20226;-75
2021/12/29 16:53:58;;;;;;;0.40;0.40;;;;;8.70;95731.00;;;;8251880;28;20265;-76
2021/12/29 16:58:02;;;;;;;0.30;0.30;;;;;8.60;95735.00;;;;8256928;28;20302;-76
2021/12/29 17:02:05;;;;;;;0.40;0.40;;;;;8.60;95730.00;;;;8244642;28;20888;-76
2021/12/29 17:06:10;;;;;;;0.40;0.40;;;;;8.60;95716.00;;;;8251314;28;20234;-76
2021/12/29 17:10:15;;;;;;;0.40;0.40;;;;;8.50;95728.00;;;;8245800;28;20309;-77
2021/12/29 17:14:18;;;;;;;0.37;0.37;;;;;8.50;95709.00;;;;8248237;28;20242;-76
2021/12/29 17:18:22;;;;;;;0.40;0.40;;;;;8.50;95703.00;;;;8243429;28;20322;-78
2021/12/29 17:22:31;;;;;;;0.40;0.40;;;;;8.40;95687.00;;;;8244543;28;20603;-78
2021/12/29 17:26:35;;;;;;;0.40;0.40;;;;;8.30;95685.00;;;;8243935;28;20230;-78
2021/12/29 17:30:39;;;;;;;0.40;0.40;;;;;8.20;95682.00;;;;8240781;28;20225;-80
2021/12/29 17:34:42;;;;;;;0.40;0.40;;;;;8.20;95687.00;;;;8249576;28;20655;-78
2021/12/29 17:38:47;;;;;;;0.40;0.40;;;;;8.20;95688.00;;;;8242215;28;20242;-79
2021/12/29 17:42:51;;;;;;;0.40;0.40;;;;;8.20;95694.00;;;;8228287;28;20318;-77
2021/12/29 17:47:02;;;;;;;0.40;0.40;;;;;8.10;95699.00;;;;8214422;28;20234;-76
2021/12/29 17:51:18;;;;;;;0.40;0.40;;;;;8.10;95718.00;;;;8226112;28;20226;-75
2021/12/29 17:55:55;;;;;;;0.40;0.40;;;;;8.00;95720.00;;;;8216248;28;20244;-76
2021/12/29 18:00:34;;;;;;;0.40;0.40;;;;;8.00;95709.00;;;;8222408;28;20214;-74
2021/12/29 18:04:53;;;;;;;0.40;0.40;;;;;8.00;95698.00;;;;8224318;28;20321;-74
2021/12/29 18:09:29;;;;;;;0.40;0.40;;;;;8.10;95700.00;;;;8198155;28;20234;-74
2021/12/29 18:14:04;;;;;;;0.40;0.40;;;;;8.10;95698.00;;;;8250436;28;21588;-73
2021/12/29 18:18:10;;;;;;;0.40;0.40;;;;;8.20;95696.00;;;;8219298;28;20317;-75
2021/12/29 18:22:23;;;;;;;0.40;0.40;;;;;8.20;95691.00;;;;8226830;28;20237;-74
2021/12/29 18:26:26;;;;;;;0.40;0.40;;;;;8.20;95687.00;;;;8229749;28;21027;-76
2021/12/29 18:30:31;;;;;;;0.40;0.40;;;;;8.20;95687.00;;;;8233358;28;20281;-75
2021/12/29 18:34:35;;;;;;;0.40;0.40;;;;;8.30;95698.00;;;;8228688;28;20269;-76
2021/12/29 18:38:38;;;;;;;0.40;0.40;;;;;8.30;95699.00;;;;8235203;28;20305;-75
2021/12/29 18:42:41;;;;;;;0.40;0.40;;;;;8.30;95691.00;;;;8232529;28;20229;-75
2021/12/29 18:46:46;;;;;;;0.40;0.40;;;;;8.30;95699.00;;;;8221871;28;20358;-75
2021/12/29 18:50:50;;;;;;;0.40;0.40;;;;;8.30;95711.00;;;;8223567;28;20309;-75
2021/12/29 18:54:54;;;;;;;0.40;0.40;;;;;8.30;95727.00;;;;8232797;28;20717;-75
2021/12/29 18:58:57;;;;;;;0.40;0.40;;;;;8.40;95716.00;;;;8232625;28;20254;-76
2021/12/29 19:03:05;;;;;;;0.40;0.40;;;;;8.40;95719.00;;;;8237006;28;20809;-76
2021/12/29 19:07:11;;;;;;;0.38;0.38;;;;;8.40;95725.00;;;;8227720;28;20239;-75
2021/12/29 19:11:18;;;;;;;0.40;0.40;;;;;8.50;95725.00;;;;8226730;28;20249;-75
2021/12/29 19:15:28;;;;;;;0.40;0.40;;;;;8.50;95725.00;;;;8232711;28;20222;-76
2021/12/29 19:19:36;;;;;;;0.40;0.40;;;;;8.50;95723.00;;;;8226604;28;20222;-76
2021/12/29 19:23:39;;;;;;;0.40;0.40;;;;;8.50;95732.00;;;;8226926;28;20230;-75
2021/12/29 19:27:43;;;;;;;0.30;0.30;;;;;8.50;95727.00;;;;8228214;28;20252;-76
2021/12/29 19:31:48;;;;;;;0.40;0.40;;;;;8.60;95733.00;;;;8230520;28;21029;-74
2021/12/29 19:35:56;;;;;;;0.40;0.40;;;;;8.60;95724.00;;;;8229560;28;20690;-75
2021/12/29 19:40:00;;;;;;;0.40;0.40;;;;;8.50;95729.00;;;;8221390;28;20357;-75
2021/12/29 19:44:04;;;;;;;0.40;0.40;;;;;8.50;95736.00;;;;8230799;28;20346;-80
2021/12/29 19:48:07;;;;;;;0.40;0.40;;;;;8.50;95734.00;;;;8231496;28;20654;-80
2021/12/29 19:52:15;;;;;;;0.35;0.35;;;;;8.50;95732.00;;;;8231810;28;20711;-83
2021/12/29 19:56:18;;;;;;;0.40;0.40;;;;;8.40;95743.00;;;;8233355;28;20288;-82
2021/12/29 20:00:23;;;;;;;0.40;0.40;;;;;8.40;95747.00;;;;8235591;28;20261;-77
2021/12/29 20:04:27;;;;;;;0.40;0.40;;;;;8.40;95751.00;;;;8235931;28;20230;-79
2021/12/29 20:08:32;;;;;;;0.30;0.30;;;;;8.40;95741.00;;;;8232602;28;20337;-81
2021/12/29 20:12:40;;;;;;;0.40;0.40;;;;;8.40;95751.00;;;;8233618;28;20226;-84
2021/12/29 20:16:44;;;;;;;0.40;0.40;;;;;8.30;95749.00;;;;8231066;28;21035;-78
2021/12/29 20:20:47;;;;;;;0.40;0.40;;;;;8.30;95747.00;;;;8231952;28;20250;-78
2021/12/29 20:24:52;;;;;;;0.40;0.40;;;;;8.30;95736.00;;;;8239004;28;20306;-77
2021/12/29 20:28:56;;;;;;;0.40;0.40;;;;;8.30;95735.00;;;;8235082;28;20258;-77
2021/12/29 20:32:59;;;;;;;0.40;0.40;;;;;8.30;95722.00;;;;8234799;28;20384;-78
2021/12/29 20:37:04;;;;;;;0.40;0.40;;;;;8.30;95739.00;;;;8235780;28;20305;-77
2021/12/29 20:41:11;;;;;;;0.40;0.40;;;;;8.40;95744.00;;;;8240086;28;20316;-76
2021/12/29 20:45:15;;;;;;;0.40;0.40;;;;;8.30;95754.00;;;;8234491;28;20242;-76
2021/12/29 20:49:19;;;;;;;0.40;0.40;;;;;8.30;95751.00;;;;8237213;28;20223;-77